Terminal Aerodrome Forecast
Issued by NWS Jackson, MS

Home | Current Version | Previous Version | Text Only | Print | Product List | Glossary On
Versions: 1 2 3 4 5 6 7 8 9 10 11 12 13 14 15
000
FTUS44 KJAN 021100 RRA
TAFGWO
TAF
KGWO 021150Z 0212/0312 17007KT P6SM FEW012 OVC030
     FM021600 18011KT P6SM VCTS SCT030 BKN045CB
     FM030000 17010KT P6SM BKN050
     FM030730 20010KT 2SM +TSRA BKN015 OVC025CB
     FM031000 26012G20KT P6SM BKN015=

USA.gov is the U.S. government's official web portal to all federal, state and local government web resources and services.